Terminal Aerodrome Forecast
Issued by NWS Pueblo, CO

Home | Current Version | Previous Version | Text Only | Print | Product List | Glossary On
Versions: 1 2 3 4 5 6 7 8 9 10 11 12 13 14 15 16 17 18 19 20 21 22 23 24 25 26 27 28 29 30 31 32 33 34 35 36 37 38 39 40 41 42 43 44 45
000
FTUS45 KPUB 271720
TAFALS
TAF
KALS 271720Z 2718/2818 20006KT P6SM VCSH SCT020 BKN080
     FM272100 20010KT P6SM FEW020 BKN150
     FM280200 16008KT P6SM VCSH SCT020 OVC040
     FM280700 18006KT 3SM -SN BR SCT010 OVC025=

USA.gov is the U.S. government's official web portal to all federal, state and local government web resources and services.